Time;durP1;ratioP1;P1;durP2;ratioP2;P2;SDS_P1;SDS_P2;PMS_P1;PMS_P2;Temp;Humidity;BMP_temperature;BMP_pressure;BME280_temperature;BME280_humidity;BME280_pressure;Samples;Min_cycle;Max_cycle;Signal;HPM_P1;HPM_P2
2022/03/28 00:02:03;;;;;;;31.02;16.25;;;;;;;7.17;75.63;102624.34;5051447;28;20512;-54
2022/03/28 00:04:29;;;;;;;28.00;16.60;;;;;;;7.11;75.92;102617.06;5052369;28;20473;-53
2022/03/28 00:06:54;;;;;;;29.73;16.38;;;;;;;7.04;76.56;102610.81;5052735;28;20025;-55
2022/03/28 00:09:19;;;;;;;31.30;16.35;;;;;;;7.01;76.82;102608.56;5056542;28;20024;-55
2022/03/28 00:11:44;;;;;;;28.95;15.88;;;;;;;6.93;76.92;102615.25;5056146;28;20393;-54
2022/03/28 00:14:10;;;;;;;30.50;16.15;;;;;;;6.91;76.96;102609.13;5056436;28;20048;-55
2022/03/28 00:16:35;;;;;;;28.77;16.08;;;;;;;6.89;77.04;102603.06;5056053;28;20453;-55
2022/03/28 00:19:00;;;;;;;31.67;16.02;;;;;;;6.81;77.77;102597.88;5056160;28;20379;-54
2022/03/28 00:21:26;;;;;;;27.55;15.77;;;;;;;6.72;78.50;102606.47;5056269;28;20051;-56
2022/03/28 00:23:52;;;;;;;29.85;16.05;;;;;;;6.70;78.13;102596.78;5056046;28;20032;-53
2022/03/28 00:26:19;;;;;;;28.50;16.17;;;;;;;6.69;78.63;102593.22;5056204;28;20037;-55
2022/03/28 00:28:45;;;;;;;30.13;16.63;;;;;;;6.69;78.65;102586.88;5055834;28;20037;-56
2022/03/28 00:31:10;;;;;;;31.50;16.23;;;;;;;6.65;78.85;102582.94;5056062;28;20025;-55
2022/03/28 00:33:35;;;;;;;27.35;15.80;;;;;;;6.64;78.73;102579.31;5056343;28;20035;-54
2022/03/28 00:36:01;;;;;;;28.13;16.17;;;;;;;6.64;79.07;102573.00;5056199;28;20074;-55
2022/03/28 00:38:26;;;;;;;26.63;15.32;;;;;;;6.62;79.22;102564.13;5056359;28;20061;-55
2022/03/28 00:40:51;;;;;;;30.63;16.63;;;;;;;6.55;79.28;102559.59;5056153;28;20473;-55
2022/03/28 00:43:17;;;;;;;30.00;17.27;;;;;;;6.51;79.82;102561.13;5056097;28;20041;-54
2022/03/28 00:45:42;;;;;;;28.30;17.05;;;;;;;6.45;79.60;102562.09;5054386;28;20113;-54
2022/03/28 00:48:09;;;;;;;32.55;17.17;;;;;;;6.40;80.13;102550.94;5055887;28;20044;-55
2022/03/28 00:50:35;;;;;;;33.72;16.02;;;;;;;6.39;80.10;102549.25;5055517;28;20029;-54
2022/03/28 00:53:03;;;;;;;30.63;16.45;;;;;;;6.42;80.15;102547.97;5055151;28;20076;-55
2022/03/28 00:55:28;;;;;;;30.83;16.92;;;;;;;6.39;80.53;102546.50;5055592;28;20096;-54
2022/03/28 00:57:54;;;;;;;30.35;17.52;;;;;;;6.35;80.06;102540.66;5055626;28;20047;-54
2022/03/28 01:00:20;;;;;;;30.88;16.70;;;;;;;6.38;80.27;102550.34;5054902;28;20151;-55
2022/03/28 01:02:46;;;;;;;28.10;15.93;;;;;;;6.38;80.65;102550.34;5055328;28;20021;-55
2022/03/28 01:05:12;;;;;;;31.55;16.42;;;;;;;6.36;80.64;102547.84;5054992;28;20112;-55
2022/03/28 01:07:38;;;;;;;33.55;17.13;;;;;;;6.31;80.78;102544.13;5055917;28;20055;-57
2022/03/28 01:10:05;;;;;;;29.10;17.02;;;;;;;6.31;80.80;102544.13;5055386;28;20037;-56
2022/03/28 01:12:32;;;;;;;30.42;15.68;;;;;;;6.28;80.82;102531.69;5055388;28;20021;-55
2022/03/28 01:14:58;;;;;;;31.27;16.15;;;;;;;6.24;80.73;102535.97;5055130;28;20044;-56
2022/03/28 01:20:09;;;;;;;29.88;16.38;;;;;;;6.20;81.52;102535.59;5055409;28;20079;-54
2022/03/28 01:22:35;;;;;;;32.70;17.10;;;;;;;6.18;81.43;102531.41;5055096;28;20037;-54
2022/03/28 01:25:03;;;;;;;28.23;16.52;;;;;;;6.06;81.63;102514.91;5055335;28;20100;-56
2022/03/28 01:27:29;;;;;;;27.70;15.65;;;;;;;6.14;81.06;102525.56;5054673;28;20090;-55
2022/03/28 01:29:54;;;;;;;29.80;16.20;;;;;;;6.11;81.97;102520.53;5055398;28;20029;-56
2022/03/28 01:32:20;;;;;;;29.92;16.73;;;;;;;6.08;81.87;102519.09;5055075;28;20102;-56
2022/03/28 01:34:45;;;;;;;29.38;16.90;;;;;;;6.05;81.96;102511.31;5055189;28;20028;-55
2022/03/28 01:37:10;;;;;;;28.67;15.75;;;;;;;6.01;82.10;102507.38;5055012;28;20033;-56
2022/03/28 01:39:36;;;;;;;30.98;15.68;;;;;;;5.98;82.33;102516.03;5055018;28;20639;-55
2022/03/28 01:42:01;;;;;;;26.50;15.70;;;;;;;5.97;82.02;102508.88;5054937;28;20099;-55
2022/03/28 01:44:26;;;;;;;30.88;16.23;;;;;;;5.95;81.91;102502.78;5054866;28;20029;-55
2022/03/28 01:46:52;;;;;;;29.08;15.93;;;;;;;5.89;82.22;102501.81;5054619;28;20435;-55
2022/03/28 01:49:19;;;;;;;31.52;16.23;;;;;;;5.89;82.29;102500.97;5055039;28;20025;-55
2022/03/28 01:51:46;;;;;;;30.08;16.85;;;;;;;5.86;82.50;102495.91;5053829;28;20037;-55
2022/03/28 01:54:12;;;;;;;27.85;15.90;;;;;;;5.82;82.99;102490.06;5053493;28;20106;-55
2022/03/28 01:56:38;;;;;;;28.52;16.83;;;;;;;5.76;83.03;102507.47;5053750;28;20029;-55
2022/03/28 01:59:05;;;;;;;30.35;16.33;;;;;;;5.69;83.00;102496.59;5054350;28;20025;-55
2022/03/28 02:01:31;;;;;;;28.55;15.45;;;;;;;5.71;83.25;102501.88;5054081;28;20025;-56
2022/03/28 02:03:57;;;;;;;28.92;16.13;;;;;;;5.68;83.42;102494.06;5054383;28;20044;-55
2022/03/28 02:06:23;;;;;;;28.30;16.27;;;;;;;5.67;83.41;102492.41;5054120;28;20021;-56
2022/03/28 02:08:48;;;;;;;33.30;16.48;;;;;;;5.67;83.53;102493.22;5054518;28;20020;-55
2022/03/28 02:11:13;;;;;;;29.63;16.45;;;;;;;5.62;83.67;102491.19;5100252;22;20048;-52
2022/03/28 02:13:39;;;;;;;30.85;16.15;;;;;;;5.66;83.64;102486.09;5094678;28;20029;-54
2022/03/28 02:16:04;;;;;;;31.73;16.88;;;;;;;5.63;84.07;102486.53;5093736;28;20032;-52
2022/03/28 02:18:30;;;;;;;28.33;16.20;;;;;;;5.64;83.84;102488.22;5093476;28;20032;-52
2022/03/28 02:20:55;;;;;;;32.53;16.80;;;;;;;5.62;83.72;102482.13;5095048;28;20058;-53
2022/03/28 02:23:21;;;;;;;29.80;16.38;;;;;;;5.57;83.96;102484.72;5094187;28;20032;-53
2022/03/28 02:25:46;;;;;;;29.25;15.90;;;;;;;5.56;83.63;102483.88;5094421;28;20032;-52
2022/03/28 02:28:12;;;;;;;32.97;16.05;;;;;;;5.57;83.94;102488.31;5094547;28;20458;-51
2022/03/28 02:30:38;;;;;;;30.92;16.70;;;;;;;5.53;84.09;102484.34;5093511;28;20077;-53
2022/03/28 02:33:03;;;;;;;29.50;15.90;;;;;;;5.41;83.92;102467.81;5093727;28;20082;-50
2022/03/28 02:35:29;;;;;;;28.67;16.50;;;;;;;5.42;84.57;102468.66;5093792;28;20032;-56
2022/03/28 02:37:54;;;;;;;27.45;15.98;;;;;;;5.41;84.27;102473.31;5094307;28;20441;-50
2022/03/28 02:40:19;;;;;;;29.13;16.42;;;;;;;5.39;84.87;102472.69;5094335;28;20107;-49
2022/03/28 02:42:45;;;;;;;29.73;15.75;;;;;;;5.35;84.84;102463.25;5094381;28;20054;-51
2022/03/28 02:45:10;;;;;;;31.65;16.83;;;;;;;5.35;84.89;102467.91;5094499;28;20364;-52
2022/03/28 02:47:36;;;;;;;29.88;15.63;;;;;;;5.33;85.22;102468.13;5094035;28;20083;-53
2022/03/28 02:50:02;;;;;;;30.73;16.75;;;;;;;5.36;84.80;102461.34;5093835;28;20447;-52
2022/03/28 02:52:27;;;;;;;30.95;16.33;;;;;;;5.32;85.31;102460.97;5093000;28;20028;-53
2022/03/28 02:54:52;;;;;;;31.35;16.63;;;;;;;5.29;85.21;102450.47;5093455;28;20365;-51
2022/03/28 02:57:18;;;;;;;29.08;16.35;;;;;;;5.25;85.25;102447.31;5092081;28;20085;-52
2022/03/28 02:59:43;;;;;;;29.83;16.35;;;;;;;5.23;85.28;102454.97;5093281;28;20106;-50
2022/03/28 03:02:08;;;;;;;30.58;15.88;;;;;;;5.20;85.63;102441.72;5093350;28;20039;-52
2022/03/28 03:04:34;;;;;;;32.72;17.48;;;;;;;5.13;85.64;102439.03;5093537;28;20028;-52
2022/03/28 03:07:01;;;;;;;32.97;16.27;;;;;;;5.11;85.63;102440.34;5092899;28;20024;-49
2022/03/28 03:09:26;;;;;;;28.88;15.73;;;;;;;5.05;86.79;102436.63;5092562;28;20040;-51
2022/03/28 03:11:52;;;;;;;32.78;15.90;;;;;;;5.03;86.11;102436.00;5092990;28;20434;-52
2022/03/28 03:14:17;;;;;;;30.33;15.32;;;;;;;4.97;86.72;102435.00;5093012;28;20028;-51
2022/03/28 03:16:43;;;;;;;31.33;15.63;;;;;;;4.91;86.36;102424.97;5092547;28;20115;-53
2022/03/28 03:19:09;;;;;;;30.63;15.93;;;;;;;4.87;86.55;102421.00;5092805;28;20089;-53
2022/03/28 03:21:34;;;;;;;32.42;16.48;;;;;;;4.86;87.19;102429.44;5092548;28;20053;-50
2022/03/28 03:24:00;;;;;;;34.25;16.45;;;;;;;4.85;86.75;102423.16;5092842;28;20027;-48
2022/03/28 03:26:25;;;;;;;27.70;15.27;;;;;;;4.81;87.20;102421.91;5093250;28;20435;-50
2022/03/28 03:28:50;;;;;;;30.58;16.05;;;;;;;4.80;87.34;102428.47;5092809;28;20086;-48
2022/03/28 03:31:16;;;;;;;29.33;16.60;;;;;;;4.76;87.55;102436.31;5093161;28;20489;-52
2022/03/28 03:33:41;;;;;;;28.48;15.85;;;;;;;4.76;87.66;102427.25;5093182;28;20157;-52
2022/03/28 03:36:07;;;;;;;31.65;16.77;;;;;;;4.71;88.13;102425.19;5093453;28;20024;-52
2022/03/28 03:38:33;;;;;;;31.50;16.65;;;;;;;4.71;88.44;102427.94;5093003;28;20050;-51
2022/03/28 03:40:58;;;;;;;32.10;16.45;;;;;;;4.68;88.11;102414.69;5093391;28;20063;-53
2022/03/28 03:43:26;;;;;;;31.45;16.48;;;;;;;4.68;88.12;102420.97;5092925;28;20028;-50
2022/03/28 03:45:52;;;;;;;32.28;17.17;;;;;;;4.65;88.26;102410.50;5093000;28;20031;-47
2022/03/28 03:48:19;;;;;;;31.13;16.95;;;;;;;4.62;88.84;102416.44;5093189;28;20099;-49
2022/03/28 03:50:44;;;;;;;31.80;16.45;;;;;;;4.56;88.83;102417.34;5092714;28;20024;-50
2022/03/28 03:53:10;;;;;;;33.30;16.85;;;;;;;4.55;89.06;102420.28;5091941;28;20027;-50
2022/03/28 03:55:36;;;;;;;30.63;16.20;;;;;;;4.57;89.14;102412.69;5092442;28;20451;-48
2022/03/28 03:58:01;;;;;;;30.98;15.30;;;;;;;4.51;89.10;102408.94;5092551;28;20057;-49
2022/03/28 04:00:26;;;;;;;29.88;15.32;;;;;;;4.51;88.98;102404.31;5093199;28;20107;-50
2022/03/28 04:02:51;;;;;;;28.73;14.27;;;;;;;4.52;89.00;102406.00;5092705;28;20398;-48
2022/03/28 04:05:17;;;;;;;29.63;14.85;;;;;;;4.41;89.08;102384.81;5093043;28;20467;-47
2022/03/28 04:07:43;;;;;;;32.33;15.15;;;;;;;4.44;89.04;102395.31;5092917;28;20051;-47
2022/03/28 04:10:08;;;;;;;30.63;15.30;;;;;;;4.41;89.83;102397.66;5092943;28;20112;-47
2022/03/28 04:12:33;;;;;;;29.88;14.65;;;;;;;4.36;89.61;102390.97;5092335;28;20480;-48
2022/03/28 04:15:00;;;;;;;29.17;15.07;;;;;;;4.34;90.24;102393.09;5092670;28;20490;-47
2022/03/28 04:17:28;;;;;;;33.70;15.23;;;;;;;4.29;90.32;102386.63;5108290;28;20439;-47
2022/03/28 04:19:54;;;;;;;30.10;14.68;;;;;;;4.28;90.72;102395.91;5092535;28;20016;-47
2022/03/28 04:22:19;;;;;;;28.05;15.05;;;;;;;4.27;90.55;102389.59;5092634;28;20024;-48
2022/03/28 04:24:45;;;;;;;34.63;15.38;;;;;;;4.24;90.42;102384.56;5092442;28;20057;-48
2022/03/28 04:27:10;;;;;;;31.90;14.77;;;;;;;4.21;89.96;102380.38;5092467;28;20035;-48
2022/03/28 04:29:35;;;;;;;29.63;15.00;;;;;;;4.18;90.50;102378.06;5092337;28;20101;-48
2022/03/28 04:32:01;;;;;;;28.08;15.13;;;;;;;4.17;90.56;102370.91;5092611;28;20454;-48
2022/03/28 04:34:26;;;;;;;30.88;15.02;;;;;;;4.16;91.49;102380.19;5092560;28;20421;-49
2022/03/28 04:36:51;;;;;;;34.30;16.95;;;;;;;4.10;91.03;102378.38;5092123;28;20067;-48
2022/03/28 04:39:18;;;;;;;26.95;14.63;;;;;;;4.10;91.72;102378.38;5092242;28;20522;-48
2022/03/28 04:41:43;;;;;;;30.83;15.40;;;;;;;4.06;91.50;102375.25;5090836;28;20099;-49
2022/03/28 04:44:08;;;;;;;32.08;14.90;;;;;;;4.03;91.89;102386.63;5092211;28;20115;-49
2022/03/28 04:46:34;;;;;;;36.15;15.43;;;;;;;4.03;92.25;102381.16;5091219;28;20027;-49
2022/03/28 04:48:59;;;;;;;36.85;15.20;;;;;;;4.00;91.79;102384.38;5092573;28;20016;-53
2022/03/28 04:51:25;;;;;;;31.27;15.10;;;;;;;3.98;91.99;102382.88;5091691;28;20028;-49
2022/03/28 04:53:50;;;;;;;30.40;14.80;;;;;;;3.98;91.65;102383.75;5094097;28;20032;-49
2022/03/28 04:56:15;;;;;;;30.45;14.73;;;;;;;4.00;91.84;102388.97;5096485;28;20024;-51
2022/03/28 04:58:40;;;;;;;28.40;15.45;;;;;;;4.02;92.20;102390.44;5095603;28;20392;-51
2022/03/28 05:01:06;;;;;;;30.60;14.98;;;;;;;4.02;91.91;102400.56;5095655;28;20085;-52
2022/03/28 05:03:31;;;;;;;31.05;15.73;;;;;;;4.01;92.71;102401.63;5095683;28;20110;-51
2022/03/28 05:05:56;;;;;;;29.88;15.65;;;;;;;3.99;92.52;102395.53;5094411;28;20031;-51
2022/03/28 05:08:22;;;;;;;29.00;14.48;;;;;;;3.97;92.38;102386.72;5096125;28;20028;-50
2022/03/28 05:10:47;;;;;;;31.55;15.05;;;;;;;3.93;93.07;102380.00;5095218;28;20134;-52
2022/03/28 05:13:12;;;;;;;30.00;15.48;;;;;;;3.90;92.42;102382.13;5094308;28;20077;-50
2022/03/28 05:15:37;;;;;;;31.20;15.02;;;;;;;3.87;92.28;102385.28;5095932;28;20494;-50
2022/03/28 05:18:03;;;;;;;31.38;15.25;;;;;;;3.84;92.67;102382.16;5095146;28;20036;-49
2022/03/28 05:20:28;;;;;;;29.88;15.90;;;;;;;3.81;92.57;102379.88;5095645;28;20035;-50
2022/03/28 05:22:54;;;;;;;33.33;16.58;;;;;;;3.79;92.48;102371.88;5095038;28;20036;-50
2022/03/28 05:25:19;;;;;;;35.03;16.98;;;;;;;3.78;92.80;102372.09;5095475;28;20099;-50
2022/03/28 05:27:45;;;;;;;30.70;16.23;;;;;;;3.77;93.29;102378.63;5095166;28;20031;-50
2022/03/28 05:30:12;;;;;;;29.98;15.95;;;;;;;3.78;92.98;102378.41;5096131;28;20024;-49
2022/03/28 05:32:38;;;;;;;31.58;16.27;;;;;;;3.79;93.11;102374.63;5095435;28;20086;-51
2022/03/28 05:35:05;;;;;;;31.75;15.23;;;;;;;3.79;93.48;102374.63;5094716;28;20028;-51
2022/03/28 05:37:30;;;;;;;32.08;15.93;;;;;;;3.77;93.21;102370.44;5095537;28;20359;-52
2022/03/28 05:39:56;;;;;;;31.63;15.77;;;;;;;3.78;92.88;102374.84;5095337;28;20081;-51
2022/03/28 05:42:21;;;;;;;31.80;16.98;;;;;;;3.74;93.60;102363.50;5095495;28;20038;-51
2022/03/28 05:44:47;;;;;;;30.63;14.45;;;;;;;3.72;93.59;102373.84;5095415;28;20030;-50
2022/03/28 05:47:12;;;;;;;30.80;14.43;;;;;;;3.71;92.94;102378.47;5095323;28;20054;-52
2022/03/28 05:49:37;;;;;;;26.88;14.57;;;;;;;3.74;93.44;102372.53;5095655;28;20081;-53
2022/03/28 05:52:04;;;;;;;31.60;15.45;;;;;;;3.78;93.94;102372.09;5095392;28;20028;-51
2022/03/28 05:54:29;;;;;;;28.20;14.20;;;;;;;3.79;93.77;102374.63;5095428;28;20023;-50
2022/03/28 05:56:54;;;;;;;30.02;14.85;;;;;;;3.85;93.11;102373.75;5095287;28;20023;-50
2022/03/28 05:59:20;;;;;;;31.17;14.88;;;;;;;3.89;92.94;102365.91;5093864;28;20024;-53
2022/03/28 06:01:46;;;;;;;28.27;14.75;;;;;;;3.88;93.39;102362.31;5094613;28;20470;-50
2022/03/28 06:04:11;;;;;;;34.13;15.10;;;;;;;3.93;93.34;102366.31;5093066;28;20491;-50
2022/03/28 06:06:37;;;;;;;30.88;14.68;;;;;;;3.95;93.13;102365.00;5095009;28;20032;-51
2022/03/28 06:09:03;;;;;;;28.55;14.48;;;;;;;3.97;93.70;102371.09;5094895;28;20023;-48
2022/03/28 06:11:28;;;;;;;30.33;15.48;;;;;;;4.01;93.15;102361.41;5094985;28;20052;-51
2022/03/28 06:13:57;;;;;;;33.03;15.13;;;;;;;4.06;92.96;102355.25;5094934;28;20070;-49
2022/03/28 06:16:22;;;;;;;34.50;16.23;;;;;;;4.10;93.19;102350.97;5094753;28;20103;-54
2022/03/28 06:18:47;;;;;;;30.75;16.33;;;;;;;4.15;93.28;102351.16;5095037;28;20099;-50
2022/03/28 06:21:12;;;;;;;31.30;15.35;;;;;;;4.20;93.07;102362.25;5094743;28;20036;-50
2022/03/28 06:23:38;;;;;;;33.80;15.02;;;;;;;4.21;94.07;102358.47;5094478;28;20541;-54
2022/03/28 06:26:04;;;;;;;34.13;15.68;;;;;;;4.24;93.97;102354.41;5094986;28;20024;-56
2022/03/28 06:28:30;;;;;;;34.67;17.50;;;;;;;4.31;93.31;102354.34;5094815;28;20525;-48
2022/03/28 06:30:55;;;;;;;33.47;16.35;;;;;;;4.36;93.74;102355.34;5094507;28;20031;-52
2022/03/28 06:33:21;;;;;;;31.80;15.82;;;;;;;4.42;93.40;102353.63;5094654;28;20396;-53
2022/03/28 06:35:46;;;;;;;32.20;15.73;;;;;;;4.48;92.74;102354.59;5094457;28;20028;-52
2022/03/28 06:38:12;;;;;;;33.13;15.45;;;;;;;4.54;93.54;102356.44;5094590;28;20028;-51
2022/03/28 06:52:56;;;;;;;34.53;16.42;;;;;;;4.86;93.84;102350.78;5128460;27;20386;-53
2022/03/28 06:55:23;;;;;;;30.42;15.63;;;;;;;5.01;93.19;102350.34;5128834;27;20046;-53
2022/03/28 06:57:48;;;;;;;31.55;16.20;;;;;;;5.11;92.47;102350.63;5126699;28;20032;-53
2022/03/28 07:00:14;;;;;;;31.77;15.73;;;;;;;5.19;92.19;102346.75;5117078;27;20034;-54
2022/03/28 07:05:09;;;;;;;30.17;16.20;;;;;;;5.30;91.27;102347.84;5083486;22;20060;-51
2022/03/28 07:07:48;;;;;;;32.15;14.98;;;;;;;5.37;91.01;102345.00;5088006;28;20037;-52
2022/03/28 07:10:15;;;;;;;31.52;15.85;;;;;;;5.45;90.95;102347.41;5087890;28;20508;-53
2022/03/28 07:12:41;;;;;;;30.85;16.33;;;;;;;5.51;90.46;102342.91;5087714;28;20100;-52
2022/03/28 07:15:09;;;;;;;34.33;16.95;;;;;;;5.54;90.58;102343.25;5089055;28;20119;-51
2022/03/28 07:18:07;;;;;;;34.03;16.70;;;;;;;5.61;90.37;102334.91;5095463;28;20036;-55
2022/03/28 07:20:32;;;;;;;30.27;14.70;;;;;;;5.68;89.82;102332.91;5067012;28;20064;-53
2022/03/28 07:22:59;;;;;;;31.45;15.68;;;;;;;5.78;89.56;102333.16;5087382;28;20443;-54
2022/03/28 07:25:25;;;;;;;31.38;17.08;;;;;;;5.90;89.73;102330.41;5087351;28;20024;-51
2022/03/28 07:27:52;;;;;;;31.52;16.50;;;;;;;5.99;89.15;102332.81;5087170;28;20649;-53
2022/03/28 07:30:19;;;;;;;32.38;16.98;;;;;;;6.06;88.63;102326.16;5087289;28;20539;-50
2022/03/28 07:32:45;;;;;;;32.72;16.65;;;;;;;6.16;88.01;102316.47;5087504;28;20032;-50
2022/03/28 07:35:12;;;;;;;33.08;16.55;;;;;;;6.29;88.19;102323.63;5087137;28;20093;-53
2022/03/28 07:37:39;;;;;;;35.67;17.83;;;;;;;6.34;87.68;102337.50;5087079;28;20039;-51
2022/03/28 07:40:06;;;;;;;33.83;17.00;;;;;;;6.41;87.51;102321.69;5087076;28;20020;-53
2022/03/28 07:42:33;;;;;;;36.95;17.95;;;;;;;6.49;87.79;102321.31;5084994;28;20085;-53
2022/03/28 07:44:59;;;;;;;36.58;19.05;;;;;;;6.54;87.85;102323.34;5086963;28;20484;-52
2022/03/28 07:47:27;;;;;;;35.58;18.05;;;;;;;6.59;87.78;102319.88;5086414;28;20134;-51
2022/03/28 07:49:53;;;;;;;35.17;17.83;;;;;;;6.68;86.95;102318.41;5085565;28;20032;-54
2022/03/28 07:52:19;;;;;;;34.47;17.92;;;;;;;6.82;87.60;102313.47;5062880;28;20100;-51
2022/03/28 07:54:45;;;;;;;35.30;18.65;;;;;;;6.87;86.39;102310.81;5071387;28;20107;-52
2022/03/28 07:57:13;;;;;;;37.53;18.48;;;;;;;6.91;86.89;102311.16;5072897;28;20025;-53
2022/03/28 07:59:38;;;;;;;40.00;18.98;;;;;;;6.94;86.42;102302.44;5073224;28;20032;-52
2022/03/28 08:02:04;;;;;;;35.72;19.15;;;;;;;7.02;86.00;102310.28;5052961;28;20037;-53
2022/03/28 08:04:31;;;;;;;38.13;18.73;;;;;;;7.06;86.21;102302.38;5051411;28;20060;-53
2022/03/28 08:06:56;;;;;;;35.92;18.35;;;;;;;7.17;86.22;102296.81;5052946;28;20021;-51
2022/03/28 08:09:22;;;;;;;37.05;19.55;;;;;;;7.29;86.02;102288.47;5052919;28;20032;-53
2022/03/28 08:11:47;;;;;;;39.13;20.00;;;;;;;7.38;85.27;102291.66;5053086;28;20025;-54
2022/03/28 08:14:12;;;;;;;39.80;20.20;;;;;;;7.51;85.43;102275.91;5052585;28;20082;-53
2022/03/28 08:16:37;;;;;;;34.30;19.35;;;;;;;7.62;84.78;102274.97;5052395;28;20472;-53
2022/03/28 08:19:03;;;;;;;41.42;20.20;;;;;;;7.74;84.69;102272.97;5053008;28;20067;-54
2022/03/28 08:21:29;;;;;;;32.92;18.63;;;;;;;7.84;83.53;102283.28;5053126;28;20032;-54
2022/03/28 08:23:55;;;;;;;35.10;20.00;;;;;;;7.96;83.32;102281.28;5052749;28;20099;-54
2022/03/28 08:26:20;;;;;;;43.75;20.70;;;;;;;8.02;82.72;102284.13;5052122;28;20078;-50
2022/03/28 08:28:46;;;;;;;35.58;19.23;;;;;;;8.16;82.56;102284.59;5052644;28;20404;-55
2022/03/28 08:31:12;;;;;;;36.97;20.17;;;;;;;8.28;82.38;102279.78;5051748;28;20526;-52
2022/03/28 08:33:37;;;;;;;34.25;20.20;;;;;;;8.35;81.57;102280.44;5052524;28;20103;-51
2022/03/28 08:36:03;;;;;;;36.40;21.08;;;;;;;8.43;81.23;102277.25;5052824;28;20028;-52
2022/03/28 08:38:28;;;;;;;41.58;20.90;;;;;;;8.54;80.69;102280.16;5053705;28;20056;-52
2022/03/28 08:40:54;;;;;;;36.67;20.63;;;;;;;8.57;80.27;102271.34;5053723;28;20029;-55
2022/03/28 08:43:22;;;;;;;38.83;21.42;;;;;;;8.64;80.40;102262.88;5052840;28;20032;-51
2022/03/28 08:45:51;;;;;;;38.72;22.48;;;;;;;8.75;80.28;102261.91;5053148;28;20059;-55
2022/03/28 08:48:16;;;;;;;37.58;21.38;;;;;;;8.86;79.55;102263.69;5052934;28;20033;-55
2022/03/28 08:50:44;;;;;;;41.05;21.35;;;;;;;8.95;78.51;102254.94;5053277;28;20040;-55
2022/03/28 08:53:10;;;;;;;37.67;20.73;;;;;;;9.04;78.34;102275.47;5053281;28;20029;-54
2022/03/28 08:55:39;;;;;;;37.72;21.40;;;;;;;9.18;77.65;102268.41;5052444;28;20032;-53
2022/03/28 08:58:04;;;;;;;37.60;22.25;;;;;;;9.33;77.67;102264.13;5050747;28;20063;-53
2022/03/28 09:00:29;;;;;;;37.38;21.33;;;;;;;9.41;76.55;102265.56;5047957;28;20063;-53
2022/03/28 09:02:56;;;;;;;38.28;22.00;;;;;;;9.52;75.89;102261.78;5050375;28;20500;-53
2022/03/28 09:05:30;;;;;;;36.40;21.58;;;;;;;9.62;76.08;102259.13;5069912;28;20184;-54
2022/03/28 09:07:57;;;;;;;37.58;22.13;;;;;;;9.75;75.31;102254.25;5071787;28;20385;-54
2022/03/28 09:10:24;;;;;;;41.25;23.00;;;;;;;9.83;75.14;102262.03;5072167;28;20028;-54
2022/03/28 09:13:04;;;;;;;37.55;22.35;;;;;;;9.95;75.10;102251.59;5071917;28;20024;-52
2022/03/28 09:15:50;;;;;;;38.67;22.58;;;;;;;10.04;74.16;102248.34;5071878;28;20055;-54
2022/03/28 09:18:23;;;;;;;38.60;23.35;;;;;;;10.14;73.77;102256.69;5071318;28;20043;-53
2022/03/28 09:20:51;;;;;;;44.15;24.63;;;;;;;10.17;72.87;102244.25;5071659;28;20039;-53
2022/03/28 09:23:35;;;;;;;37.53;23.00;;;;;;;10.33;73.67;102245.16;5071602;28;20175;-54
2022/03/28 09:26:20;;;;;;;45.83;24.50;;;;;;;10.47;72.98;102248.28;5071512;28;20028;-54
2022/03/28 09:28:47;;;;;;;39.85;23.00;;;;;;;10.56;72.00;102246.66;5071076;28;20036;-54
2022/03/28 09:31:32;;;;;;;39.28;23.05;;;;;;;10.68;72.05;102247.22;5071262;28;20436;-54
2022/03/28 09:34:07;;;;;;;40.08;24.52;;;;;;;10.81;70.59;102234.84;5070493;28;20067;-54
2022/03/28 09:36:56;;;;;;;39.35;24.15;;;;;;;10.94;70.39;102241.78;5069345;28;20454;-54
2022/03/28 09:39:25;;;;;;;42.13;25.13;;;;;;;10.94;69.95;102227.94;5050578;28;20424;-53
2022/03/28 09:42:07;;;;;;;45.20;25.63;;;;;;;11.07;69.68;102232.09;5069592;28;20085;-52
2022/03/28 09:44:33;;;;;;;42.10;25.05;;;;;;;11.20;68.80;102227.94;5070199;28;20103;-52
2022/03/28 09:47:19;;;;;;;41.20;24.88;;;;;;;11.31;68.90;102228.75;5069872;28;20108;-54
2022/03/28 09:49:46;;;;;;;41.60;24.63;;;;;;;11.38;68.01;102224.59;5070982;28;20021;-53
2022/03/28 09:52:25;;;;;;;42.75;25.45;;;;;;;11.51;68.05;102214.09;5071329;28;20032;-53
2022/03/28 09:55:01;;;;;;;46.58;28.02;;;;;;;11.56;66.67;102219.59;5070797;28;20035;-52
2022/03/28 09:57:32;;;;;;;42.58;25.85;;;;;;;11.64;66.51;102210.72;5069525;28;20040;-53
2022/03/28 10:00:15;;;;;;;39.28;25.52;;;;;;;11.80;67.37;102210.72;5070319;28;20044;-53
2022/03/28 10:02:41;;;;;;;42.13;23.58;;;;;;;11.90;66.41;102202.34;5067617;28;20032;-51
2022/03/28 10:05:07;;;;;;;40.45;24.15;;;;;;;12.04;66.42;102202.63;5070454;28;20053;-54
2022/03/28 10:07:33;;;;;;;39.17;23.77;;;;;;;12.17;65.16;102201.19;5070278;28;20052;-54
2022/03/28 10:09:59;;;;;;;38.50;22.88;;;;;;;12.24;65.71;102201.69;5069806;28;20060;-53
2022/03/28 10:12:25;;;;;;;41.30;23.55;;;;;;;12.36;65.72;102200.53;5070321;28;20033;-54
2022/03/28 10:15:00;;;;;;;38.60;22.80;;;;;;;12.42;65.41;102188.28;5070900;28;20028;-54
2022/03/28 10:17:26;;;;;;;38.47;23.17;;;;;;;12.49;63.56;102191.56;5069355;28;20028;-54
2022/03/28 10:19:52;;;;;;;40.63;22.77;;;;;;;12.53;63.40;102189.06;5070940;28;20067;-53
2022/03/28 10:22:23;;;;;;;37.80;22.17;;;;;;;12.60;63.52;102184.03;5070250;28;20060;-54
2022/03/28 10:24:51;;;;;;;37.40;21.60;;;;;;;12.64;62.85;102185.09;5070564;28;20029;-54
2022/03/28 10:27:17;;;;;;;37.17;22.60;;;;;;;12.74;62.72;102185.03;5069954;28;20063;-54
2022/03/28 10:29:46;;;;;;;37.53;22.42;;;;;;;12.81;62.16;102181.94;5069182;28;20547;-52
2022/03/28 10:32:20;;;;;;;36.60;21.33;;;;;;;12.87;62.49;102172.44;5069729;28;20047;-54
2022/03/28 10:34:59;;;;;;;38.65;21.77;;;;;;;12.97;62.77;102166.00;5051672;28;20427;-54
2022/03/28 10:37:25;;;;;;;36.03;22.25;;;;;;;12.99;62.01;102169.28;5069453;28;20152;-53
2022/03/28 10:39:51;;;;;;;36.88;22.15;;;;;;;13.09;62.14;102171.97;5070487;28;20104;-52
2022/03/28 10:42:18;;;;;;;36.45;21.63;;;;;;;13.22;60.93;102167.72;5069024;28;20032;-53
2022/03/28 10:45:08;;;;;;;38.63;22.67;;;;;;;13.29;61.39;102150.69;5069439;28;20036;-52
2022/03/28 10:47:50;;;;;;;34.40;22.45;;;;;;;13.46;61.39;102152.25;5061217;28;20434;-55
2022/03/28 10:50:24;;;;;;;34.60;22.40;;;;;;;13.55;60.05;102147.72;5070684;28;20033;-54
2022/03/28 10:53:17;;;;;;;38.22;22.38;;;;;;;13.61;59.60;102156.78;5070840;28;20135;-53
2022/03/28 10:55:52;;;;;;;37.05;22.60;;;;;;;13.57;58.88;102153.78;5070753;28;20024;-53
2022/03/28 10:58:35;;;;;;;35.80;22.08;;;;;;;13.60;59.06;102144.84;5070429;28;20029;-54
2022/03/28 11:01:11;;;;;;;36.10;22.90;;;;;;;13.73;58.46;102151.66;5068949;28;20029;-52
2022/03/28 11:03:48;;;;;;;36.53;22.98;;;;;;;13.77;57.30;102147.19;5070288;28;20397;-53
2022/03/28 11:06:16;;;;;;;34.78;22.05;;;;;;;13.82;57.48;102141.53;5070515;28;20047;-55
2022/03/28 11:08:45;;;;;;;35.83;23.13;;;;;;;13.89;56.89;102132.84;5070217;28;20392;-53
2022/03/28 11:11:30;;;;;;;36.95;22.67;;;;;;;13.97;56.07;102125.78;5069756;28;20020;-52
2022/03/28 11:14:10;;;;;;;35.20;23.02;;;;;;;14.03;56.11;102128.19;5070325;28;20036;-52
2022/03/28 11:16:43;;;;;;;35.75;21.88;;;;;;;14.08;55.11;102130.06;5070445;28;20037;-54
2022/03/28 11:19:33;;;;;;;33.60;21.85;;;;;;;14.13;55.89;102124.47;5070101;28;20120;-53
2022/03/28 11:22:04;;;;;;;35.03;22.42;;;;;;;14.16;53.76;102129.44;5070395;28;20100;-50
2022/03/28 11:24:48;;;;;;;33.35;22.27;;;;;;;14.20;55.13;102118.53;5070333;28;20028;-51
2022/03/28 11:27:16;;;;;;;34.03;22.60;;;;;;;14.24;54.13;102107.63;5070281;28;20079;-51
2022/03/28 11:29:43;;;;;;;34.95;21.67;;;;;;;14.36;53.13;102105.19;5074031;28;20059;-54
2022/03/28 11:32:14;;;;;;;35.00;22.20;;;;;;;14.40;52.48;102099.88;5073992;28;20032;-54
2022/03/28 11:34:40;;;;;;;33.83;22.33;;;;;;;14.49;52.62;102098.88;5073858;28;20123;-53